Time;durP1;ratioP1;P1;durP2;ratioP2;P2;SDS_P1;SDS_P2;PMS_P1;PMS_P2;Temp;Humidity;BMP_temperature;BMP_pressure;BME280_temperature;BME280_humidity;BME280_pressure;Samples;Min_cycle;Max_cycle;Signal;HPM_P1;HPM_P2
2022/06/12 00:01:18;;;;;;;11.43;7.40;;;17.70;99.90;;;;;;5058656;28;20187;-64
2022/06/12 00:03:44;;;;;;;12.93;7.97;;;17.70;99.90;;;;;;5052397;28;20596;-63
2022/06/12 00:06:09;;;;;;;11.87;8.57;;;17.60;99.90;;;;;;5063771;28;20659;-64
2022/06/12 00:08:38;;;;;;;10.40;7.83;;;17.50;99.90;;;;;;5072241;28;20632;-65
2022/06/12 00:11:07;;;;;;;11.53;7.80;;;17.50;99.90;;;;;;5061433;28;20312;-64
2022/06/12 00:13:37;;;;;;;13.53;8.67;;;17.50;99.90;;;;;;5052067;28;20197;-65
2022/06/12 00:16:05;;;;;;;10.13;7.97;;;17.50;99.90;;;;;;5061856;28;20562;-64
2022/06/12 00:18:31;;;;;;;11.67;8.73;;;17.50;99.90;;;;;;5071973;28;20220;-65
2022/06/12 00:21:12;;;;;;;9.57;7.53;;;17.50;99.90;;;;;;5052667;28;20186;-63
2022/06/12 00:23:37;;;;;;;8.00;7.20;;;17.40;99.90;;;;;;5051918;28;20175;-65
2022/06/12 00:26:03;;;;;;;14.03;7.90;;;17.30;99.90;;;;;;5071342;28;20553;-65
2022/06/12 00:28:29;;;;;;;17.93;7.50;;;17.30;99.90;;;;;;5064989;28;20218;-64
2022/06/12 00:30:54;;;;;;;13.43;8.17;;;17.20;99.90;;;;;;5051839;28;20202;-64
2022/06/12 00:33:20;;;;;;;12.23;8.00;;;17.20;99.90;;;;;;5055968;28;20181;-70
2022/06/12 00:35:46;;;;;;;14.63;8.40;;;17.10;99.90;;;;;;5070637;28;20272;-64
2022/06/12 00:38:11;;;;;;;11.27;8.23;;;17.10;99.90;;;;;;5068452;28;20210;-65
2022/06/12 00:40:37;;;;;;;13.27;7.23;;;17.00;99.90;;;;;;5051828;28;20278;-64
2022/06/12 00:43:04;;;;;;;10.43;7.97;;;16.90;99.90;;;;;;5052543;28;20210;-64
2022/06/12 00:45:42;;;;;;;11.10;7.87;;;16.80;99.90;;;;;;5071429;28;20204;-65
2022/06/12 00:48:21;;;;;;;11.87;8.07;;;16.80;99.90;;;;;;5069913;28;20221;-65
2022/06/12 00:51:12;;;;;;;11.30;8.17;;;16.70;99.90;;;;;;5051556;28;20553;-65
2022/06/12 00:53:59;;;;;;;14.30;8.40;;;16.60;99.90;;;;;;5056034;28;20182;-65
2022/06/12 00:56:30;;;;;;;17.23;8.60;;;16.60;99.90;;;;;;5065555;28;20182;-64
2022/06/12 00:59:02;;;;;;;13.87;8.37;;;16.50;99.90;;;;;;5051350;28;20324;-65
2022/06/12 01:01:32;;;;;;;15.50;9.23;;;16.40;99.90;;;;;;5057083;28;20186;-64
2022/06/12 01:06:50;;;;;;;11.33;8.20;;;16.40;99.90;;;;;;5063654;28;20306;-65
2022/06/12 01:09:19;;;;;;;13.43;9.47;;;16.40;99.90;;;;;;5051460;28;20173;-65
2022/06/12 01:11:47;;;;;;;14.43;9.33;;;16.30;99.90;;;;;;5058066;28;20586;-65
2022/06/12 01:14:17;;;;;;;13.80;8.97;;;16.30;99.90;;;;;;5071064;28;20166;-64
2022/06/12 01:16:48;;;;;;;14.43;9.00;;;16.30;99.90;;;;;;5065086;28;20183;-64
2022/06/12 01:19:29;;;;;;;15.10;8.37;;;16.30;99.90;;;;;;5051154;28;20185;-64
2022/06/12 01:21:54;;;;;;;11.13;8.43;;;16.30;99.90;;;;;;5058092;28;20178;-65
2022/06/12 01:24:51;;;;;;;15.00;8.57;;;16.30;99.90;;;;;;5065708;28;20185;-64
2022/06/12 01:27:25;;;;;;;14.40;8.63;;;16.20;99.90;;;;;;5050755;28;20214;-64
2022/06/12 01:30:08;;;;;;;16.20;8.57;;;16.20;99.90;;;;;;5059479;28;20244;-65
2022/06/12 01:32:42;;;;;;;12.33;8.60;;;16.20;99.90;;;;;;5071113;28;20182;-65
2022/06/12 01:35:24;;;;;;;20.00;8.50;;;16.10;99.90;;;;;;5061357;28;20638;-65
2022/06/12 01:38:14;;;;;;;18.63;8.47;;;16.10;99.90;;;;;;5051170;28;20197;-65
2022/06/12 01:41:02;;;;;;;9.63;8.60;;;16.10;99.90;;;;;;5064946;28;20703;-65
2022/06/12 01:43:48;;;;;;;15.83;8.63;;;16.10;99.90;;;;;;5071297;28;20185;-65
2022/06/12 01:46:23;;;;;;;14.17;9.03;;;16.00;99.90;;;;;;5051964;28;20198;-65
2022/06/12 01:49:06;;;;;;;12.00;9.20;;;15.90;99.90;;;;;;5050917;28;20256;-65
2022/06/12 01:51:37;;;;;;;12.97;8.63;;;15.80;99.90;;;;;;5031050;28;20221;-65
2022/06/12 01:54:12;;;;;;;15.73;9.10;;;15.70;99.90;;;;;;5067513;28;20182;-65
2022/06/12 01:57:02;;;;;;;17.50;10.10;;;15.70;99.90;;;;;;5070859;28;20174;-65
2022/06/12 01:59:55;;;;;;;15.43;10.13;;;15.50;99.90;;;;;;5031344;28;20175;-65
2022/06/12 02:02:28;;;;;;;15.07;10.00;;;15.40;99.90;;;;;;5038869;28;20645;-65
2022/06/12 02:05:20;;;;;;;12.97;9.43;;;15.30;99.90;;;;;;5070570;28;20182;-65
2022/06/12 02:07:53;;;;;;;12.43;9.10;;;15.20;99.90;;;;;;5064100;28;20195;-65
2022/06/12 02:10:42;;;;;;;13.33;10.07;;;15.10;99.90;;;;;;5050622;28;20289;-65
2022/06/12 02:13:15;;;;;;;16.03;9.53;;;15.10;99.90;;;;;;5059631;28;20171;-65
2022/06/12 02:15:59;;;;;;;18.57;10.60;;;15.00;99.90;;;;;;5070496;28;20177;-65
2022/06/12 02:18:25;;;;;;;14.07;10.20;;;15.00;99.90;;;;;;5069885;28;20266;-65
2022/06/12 02:21:02;;;;;;;17.17;10.83;;;15.00;99.90;;;;;;5065604;28;20186;-65
2022/06/12 02:23:37;;;;;;;15.87;11.13;;;15.00;99.90;;;;;;5054176;28;20661;-66
2022/06/12 02:26:05;;;;;;;13.53;9.97;;;15.00;99.90;;;;;;5063963;28;20185;-65
2022/06/12 02:28:38;;;;;;;16.47;9.97;;;15.00;99.90;;;;;;5074290;28;20217;-65
2022/06/12 02:31:10;;;;;;;20.07;9.70;;;15.00;99.90;;;;;;5064653;28;20502;-65
2022/06/12 02:33:40;;;;;;;12.03;10.10;;;14.90;99.90;;;;;;5054057;28;20171;-65
2022/06/12 02:36:18;;;;;;;12.23;9.57;;;14.80;99.90;;;;;;5064498;28;20639;-69
2022/06/12 02:39:10;;;;;;;11.87;9.63;;;14.70;99.90;;;;;;5075409;28;20204;-69
2022/06/12 02:41:44;;;;;;;15.83;9.80;;;14.70;99.90;;;;;;5062760;28;20186;-66
2022/06/12 02:44:53;;;;;;;14.03;9.90;;;14.70;99.90;;;;;;5055199;28;20179;-67
2022/06/12 02:47:24;;;;;;;14.10;9.43;;;14.60;99.90;;;;;;5070848;28;20748;-68
2022/06/12 02:49:53;;;;;;;16.77;10.37;;;14.70;99.90;;;;;;5059388;28;20224;-68
2022/06/12 02:52:44;;;;;;;18.00;10.77;;;14.60;99.90;;;;;;5055887;28;20630;-65
2022/06/12 02:55:22;;;;;;;15.37;10.50;;;14.60;99.90;;;;;;5073653;28;20182;-69
2022/06/12 02:58:06;;;;;;;13.40;10.30;;;14.50;99.90;;;;;;5076357;28;20214;-68
2022/06/12 03:00:44;;;;;;;17.37;11.10;;;14.60;99.90;;;;;;5036313;28;20183;-69
2022/06/12 03:03:22;;;;;;;15.40;11.17;;;14.60;99.90;;;;;;5038681;28;20179;-66
2022/06/12 03:05:53;;;;;;;19.03;10.07;;;14.60;99.90;;;;;;5075742;28;20173;-68
2022/06/12 03:08:25;;;;;;;13.77;9.67;;;14.60;99.90;;;;;;5059414;28;20202;-68
2022/06/12 03:10:59;;;;;;;18.80;10.00;;;14.50;99.90;;;;;;5055565;28;20202;-67
2022/06/12 03:13:27;;;;;;;11.47;9.80;;;14.40;99.90;;;;;;5053288;28;20259;-67
2022/06/12 03:16:10;;;;;;;13.70;9.10;;;14.30;99.90;;;;;;5035321;28;20551;-66
2022/06/12 03:18:41;;;;;;;16.23;9.47;;;14.30;99.90;;;;;;5035476;28;20191;-69
2022/06/12 03:21:12;;;;;;;15.50;9.53;;;14.20;99.90;;;;;;5036022;28;20184;-67
2022/06/12 03:23:43;;;;;;;16.13;10.40;;;14.10;99.90;;;;;;5074691;28;20197;-65
2022/06/12 03:26:13;;;;;;;22.47;11.20;;;14.10;99.90;;;;;;5074550;28;20189;-67
2022/06/12 03:28:49;;;;;;;13.83;10.73;;;14.00;99.90;;;;;;5035118;28;20246;-67
2022/06/12 03:31:23;;;;;;;11.70;10.00;;;14.00;99.90;;;;;;5034938;28;20210;-67
2022/06/12 03:34:13;;;;;;;16.03;10.60;;;13.90;99.90;;;;;;5073273;28;20171;-63
2022/06/12 03:36:51;;;;;;;16.77;10.53;;;13.90;99.90;;;;;;5069535;28;20171;-63
2022/06/12 03:39:34;;;;;;;19.50;11.30;;;13.90;99.90;;;;;;5052812;28;20170;-63
2022/06/12 03:42:24;;;;;;;17.43;11.57;;;13.90;99.90;;;;;;5058271;28;20217;-64
2022/06/12 03:45:05;;;;;;;15.63;11.13;;;13.90;99.90;;;;;;5080689;28;20548;-64
2022/06/12 03:47:50;;;;;;;12.10;10.53;;;13.90;99.90;;;;;;5071866;28;20229;-64
2022/06/12 03:50:33;;;;;;;17.30;10.90;;;14.00;99.90;;;;;;5054423;28;20198;-63
2022/06/12 03:53:09;;;;;;;16.90;10.30;;;13.90;99.90;;;;;;5064968;28;20178;-64
2022/06/12 03:58:45;;;;;;;13.00;9.80;;;13.90;99.90;;;;;;5055430;28;20248;-64
2022/06/12 04:01:12;;;;;;;15.33;10.33;;;13.90;99.90;;;;;;5052477;28;20183;-63
2022/06/12 04:03:43;;;;;;;16.03;10.73;;;13.90;99.90;;;;;;5068874;28;20224;-61
2022/06/12 04:06:17;;;;;;;16.03;10.03;;;14.00;99.90;;;;;;5072368;28;20204;-62
2022/06/12 04:08:53;;;;;;;19.13;10.17;;;14.10;99.90;;;;;;5055085;28;20277;-64
2022/06/12 04:11:21;;;;;;;12.00;9.47;;;14.30;99.90;;;;;;5067831;28;20236;-64
2022/06/12 04:13:49;;;;;;;16.00;9.90;;;14.30;99.90;;;;;;5072244;28;20657;-63
2022/06/12 04:16:37;;;;;;;14.67;10.10;;;14.30;99.90;;;;;;5056982;28;20566;-63
2022/06/12 04:19:06;;;;;;;11.83;9.17;;;14.30;99.90;;;;;;5068447;28;20198;-62
2022/06/12 04:21:41;;;;;;;15.27;9.17;;;14.30;99.90;;;;;;5072069;28;20181;-63
2022/06/12 04:24:23;;;;;;;11.53;8.33;;;14.50;99.90;;;;;;5055285;28;20182;-63
2022/06/12 04:27:07;;;;;;;16.40;9.20;;;14.70;99.90;;;;;;5051966;28;20174;-63
2022/06/12 04:29:39;;;;;;;12.47;8.80;;;15.00;99.90;;;;;;5071999;28;20231;-65
2022/06/12 04:32:07;;;;;;;12.17;11.13;;;15.20;99.90;;;;;;5064433;28;20198;-63
2022/06/12 04:34:38;;;;;;;15.13;9.37;;;15.30;99.90;;;;;;5051592;28;20635;-65
2022/06/12 04:37:12;;;;;;;9.37;8.20;;;15.60;99.90;;;;;;5057950;28;20173;-64
2022/06/12 04:39:38;;;;;;;17.73;8.40;;;15.80;99.90;;;;;;5071888;28;20169;-64
2022/06/12 04:42:05;;;;;;;10.77;7.37;;;15.90;99.90;;;;;;5065530;28;20244;-64
2022/06/12 04:44:30;;;;;;;14.43;8.20;;;16.00;99.90;;;;;;5051453;28;20174;-64
2022/06/12 04:46:59;;;;;;;9.53;7.60;;;16.20;99.90;;;;;;5055795;28;20178;-63
2022/06/12 04:49:28;;;;;;;11.60;7.70;;;16.50;99.90;;;;;;5071587;28;20257;-65
2022/06/12 04:51:57;;;;;;;9.70;7.30;;;16.80;99.90;;;;;;5067686;28;20666;-64
2022/06/12 04:54:25;;;;;;;8.17;7.40;;;16.90;99.90;;;;;;5051345;28;20258;-64
2022/06/12 04:56:50;;;;;;;9.53;8.03;;;17.00;99.90;;;;;;5053861;28;20170;-65
2022/06/12 04:59:19;;;;;;;10.97;7.17;;;17.20;99.90;;;;;;5071830;28;20216;-65
2022/06/12 05:01:45;;;;;;;10.47;7.20;;;17.40;99.90;;;;;;5070420;28;20574;-64
2022/06/12 05:04:12;;;;;;;11.57;6.73;;;17.60;99.90;;;;;;5050426;28;20186;-65
2022/06/12 05:06:39;;;;;;;11.80;7.53;;;18.00;99.90;;;;;;5051949;28;20241;-64
2022/06/12 05:09:06;;;;;;;15.33;7.57;;;18.20;99.90;;;;;;5070825;28;20235;-64
2022/06/12 05:11:32;;;;;;;8.33;6.63;;;18.60;99.90;;;;;;5071584;28;20234;-64
2022/06/12 05:13:58;;;;;;;8.97;6.80;;;18.80;99.90;;;;;;5052407;28;20174;-64
2022/06/12 05:16:29;;;;;;;7.97;7.17;;;19.00;99.90;;;;;;5051625;28;20170;-64
2022/06/12 05:18:55;;;;;;;10.20;7.10;;;19.20;99.90;;;;;;5068510;28;20198;-65
2022/06/12 05:21:22;;;;;;;13.80;8.00;;;19.40;99.90;;;;;;5071102;28;20197;-63
2022/06/12 05:23:48;;;;;;;11.43;7.50;;;19.60;99.90;;;;;;5054829;28;20646;-64
2022/06/12 05:26:15;;;;;;;8.37;6.60;;;19.70;99.90;;;;;;5051146;28;20208;-64
2022/06/12 05:28:41;;;;;;;9.03;8.07;;;19.60;99.90;;;;;;5052222;28;20206;-65
2022/06/12 05:31:06;;;;;;;8.13;7.33;;;19.40;99.90;;;;;;5051178;28;20734;-64
2022/06/12 05:33:32;;;;;;;8.60;7.80;;;19.60;99.90;;;;;;5063344;28;20270;-65
2022/06/12 05:35:57;;;;;;;8.33;6.73;;;19.70;99.90;;;;;;5071196;28;20594;-64
2022/06/12 05:38:24;;;;;;;8.13;6.90;;;19.80;99.90;;;;;;5060054;28;20282;-65
2022/06/12 05:40:49;;;;;;;11.20;6.33;;;19.80;99.90;;;;;;5051159;28;20181;-64
2022/06/12 05:43:15;;;;;;;11.63;6.63;;;20.00;99.90;;;;;;5058500;28;20178;-65
2022/06/12 05:45:41;;;;;;;8.53;6.70;;;20.00;99.90;;;;;;5070856;28;20196;-64
2022/06/12 05:48:11;;;;;;;8.67;6.73;;;20.00;99.90;;;;;;5062345;28;20680;-64
2022/06/12 05:50:45;;;;;;;13.33;6.40;;;20.10;99.90;;;;;;5054091;28;20202;-64
2022/06/12 05:53:11;;;;;;;8.20;6.27;;;20.00;99.90;;;;;;5040459;28;20202;-65
2022/06/12 05:55:36;;;;;;;9.83;7.30;;;19.90;99.90;;;;;;5034787;28;20720;-64
2022/06/12 05:58:02;;;;;;;9.13;5.67;;;20.00;99.90;;;;;;5052301;28;20328;-64
2022/06/12 06:00:30;;;;;;;8.98;5.95;;;20.20;99.90;;;;;;5057675;28;20193;-65
2022/06/12 06:02:56;;;;;;;6.67;5.87;;;20.20;99.90;;;;;;5073812;28;20170;-65
2022/06/12 06:05:22;;;;;;;7.40;5.85;;;20.30;99.90;;;;;;5057144;28;20178;-64
2022/06/12 06:07:48;;;;;;;7.05;5.28;;;20.60;99.90;;;;;;5054535;28;20194;-65
2022/06/12 06:10:20;;;;;;;10.15;5.60;;;20.70;99.90;;;;;;5053161;28;20201;-64
2022/06/12 06:12:46;;;;;;;6.13;4.50;;;21.00;99.90;;;;;;5034739;28;20262;-62
2022/06/12 06:15:12;;;;;;;9.93;5.40;;;21.10;99.90;;;;;;5035659;28;20234;-64
2022/06/12 06:17:38;;;;;;;6.57;4.82;;;20.80;99.90;;;;;;5054704;28;20183;-64
2022/06/12 06:20:05;;;;;;;5.55;4.90;;;20.70;99.90;;;;;;5054343;28;20593;-64
2022/06/12 06:22:31;;;;;;;5.35;4.70;;;20.60;99.90;;;;;;5073279;28;20630;-64
2022/06/12 06:24:57;;;;;;;5.32;4.60;;;20.90;99.90;;;;;;5072686;28;20197;-64
2022/06/12 06:27:23;;;;;;;10.73;5.40;;;20.90;99.90;;;;;;5056072;28;20206;-64
2022/06/12 06:29:49;;;;;;;12.93;4.77;;;20.60;99.90;;;;;;5054168;28;20680;-65
2022/06/12 06:32:15;;;;;;;5.20;4.70;;;20.70;99.90;;;;;;5069590;28;20209;-64
2022/06/12 06:34:41;;;;;;;6.90;4.50;;;20.70;99.90;;;;;;5073792;28;20649;-65
2022/06/12 06:37:09;;;;;;;6.90;4.85;;;20.70;99.90;;;;;;5059666;28;20202;-64
2022/06/12 06:39:35;;;;;;;6.63;4.35;;;20.70;99.90;;;;;;5054267;28;20595;-64
2022/06/12 06:42:01;;;;;;;6.35;4.28;;;20.90;99.90;;;;;;5066349;28;20638;-64
2022/06/12 06:47:11;;;;;;;6.35;4.43;;;21.50;99.90;;;;;;5060429;28;20252;-64
2022/06/12 06:49:37;;;;;;;5.43;4.00;;;21.60;99.90;;;;;;5064642;28;20590;-65
2022/06/12 06:52:03;;;;;;;6.85;4.50;;;21.80;99.90;;;;;;5073698;28;20202;-65
2022/06/12 06:54:29;;;;;;;6.20;4.28;;;22.20;99.90;;;;;;5064014;28;20607;-65
2022/06/12 06:56:55;;;;;;;7.03;4.10;;;22.50;99.90;;;;;;5053548;28;20262;-65
2022/06/12 06:59:21;;;;;;;7.57;4.35;;;22.50;99.90;;;;;;5059331;28;20196;-65
2022/06/12 07:01:47;;;;;;;6.20;4.03;;;22.60;99.90;;;;;;5053451;28;20217;-65
2022/06/12 07:04:13;;;;;;;6.80;4.28;;;22.80;99.90;;;;;;5052728;28;20657;-65
2022/06/12 07:06:39;;;;;;;5.43;4.20;;;23.00;99.90;;;;;;5052953;28;20171;-64
2022/06/12 07:09:04;;;;;;;5.13;4.53;;;23.00;99.90;;;;;;5056734;28;20197;-64
2022/06/12 07:11:30;;;;;;;4.75;4.35;;;23.00;99.90;;;;;;5073195;28;20202;-65
2022/06/12 07:13:56;;;;;;;7.68;5.00;;;22.90;99.90;;;;;;5071459;28;20683;-64
2022/06/12 07:16:23;;;;;;;6.07;4.18;;;23.10;99.90;;;;;;5050494;28;20527;-64
2022/06/12 07:18:50;;;;;;;6.00;4.38;;;23.30;99.90;;;;;;5033248;28;20564;-64
2022/06/12 07:21:16;;;;;;;7.32;4.45;;;23.40;99.90;;;;;;5033183;28;20179;-64
2022/06/12 07:23:42;;;;;;;6.13;3.50;;;23.50;99.90;;;;;;5033068;28;20178;-64
2022/06/12 07:26:14;;;;;;;4.88;3.63;;;23.80;99.90;;;;;;5051962;28;20178;-65
2022/06/12 07:28:40;;;;;;;6.90;3.47;;;23.80;99.90;;;;;;5053064;28;20241;-65
2022/06/12 07:31:07;;;;;;;4.72;4.03;;;23.90;99.90;;;;;;5069944;28;20577;-64
2022/06/12 07:33:33;;;;;;;4.28;3.30;;;24.00;99.90;;;;;;5072678;28;20174;-64
2022/06/12 07:35:59;;;;;;;5.60;3.97;;;24.20;99.90;;;;;;5057113;28;20182;-65
2022/06/12 07:38:27;;;;;;;5.63;3.28;;;24.50;99.90;;;;;;5055144;28;20565;-64
2022/06/12 07:40:57;;;;;;;6.97;3.38;;;24.80;99.90;;;;;;5067911;28;20520;-65
2022/06/12 07:43:25;;;;;;;4.00;3.35;;;24.80;99.90;;;;;;5065771;28;20170;-65
2022/06/12 07:45:51;;;;;;;5.00;3.30;;;24.50;99.90;;;;;;5059214;28;20175;-64
2022/06/12 07:48:18;;;;;;;4.05;3.25;;;24.70;99.90;;;;;;5052441;28;20290;-65
2022/06/12 07:50:44;;;;;;;3.72;3.28;;;24.80;99.90;;;;;;5057434;28;20743;-65
2022/06/12 07:53:12;;;;;;;4.47;3.08;;;24.90;99.90;;;;;;5072129;28;20248;-64
2022/06/12 07:55:38;;;;;;;3.47;3.17;;;24.80;99.90;;;;;;5066754;28;20574;-64
2022/06/12 07:58:05;;;;;;;5.60;3.08;;;24.70;99.90;;;;;;5051700;28;20285;-64
2022/06/12 08:00:32;;;;;;;4.25;3.13;;;24.10;99.90;;;;;;5054114;28;20171;-64
2022/06/12 08:02:57;;;;;;;3.15;2.85;;;23.90;99.90;;;;;;5072326;28;20652;-65
2022/06/12 08:05:23;;;;;;;3.95;3.05;;;24.30;99.90;;;;;;5071666;28;20174;-65
2022/06/12 08:07:49;;;;;;;3.97;3.22;;;24.50;99.90;;;;;;5070035;28;20202;-65
2022/06/12 08:10:15;;;;;;;5.28;3.42;;;24.30;99.90;;;;;;5072153;28;20649;-65
2022/06/12 08:12:43;;;;;;;3.42;3.03;;;24.50;99.90;;;;;;5053840;28;20233;-65
2022/06/12 08:15:14;;;;;;;3.42;3.22;;;25.10;99.90;;;;;;5059177;28;20170;-65
2022/06/12 08:17:39;;;;;;;4.13;3.05;;;25.40;99.90;;;;;;5071721;28;20194;-64
2022/06/12 08:20:24;;;;;;;4.75;3.38;;;25.50;99.90;;;;;;5065505;28;20174;-65
2022/06/12 08:22:54;;;;;;;4.43;2.90;;;25.70;99.90;;;;;;5052076;28;20167;-65
2022/06/12 08:25:20;;;;;;;4.68;3.38;;;25.50;99.90;;;;;;5058979;28;20217;-65
2022/06/12 08:27:46;;;;;;;2.83;2.63;;;25.50;99.90;;;;;;5058240;28;20214;-64
2022/06/12 08:30:13;;;;;;;4.35;2.83;;;25.50;99.90;;;;;;5055138;28;20268;-65
2022/06/12 08:32:41;;;;;;;3.42;3.13;;;25.60;99.90;;;;;;5053246;28;20206;-65
2022/06/12 08:35:13;;;;;;;3.13;2.80;;;25.10;99.90;;;;;;5059833;28;20549;-63
2022/06/12 08:37:39;;;;;;;4.28;3.00;;;25.20;99.90;;;;;;5054443;28;20600;-64
2022/06/12 08:40:15;;;;;;;4.05;3.53;;;25.20;99.90;;;;;;5032071;28;20635;-64
2022/06/12 08:42:58;;;;;;;3.75;3.45;;;25.60;99.90;;;;;;5048474;28;20178;-65
2022/06/12 08:45:34;;;;;;;4.25;3.10;;;25.60;99.90;;;;;;5049619;28;20172;-65
2022/06/12 08:48:08;;;;;;;5.13;3.00;;;25.80;99.90;;;;;;5031653;28;20194;-65
2022/06/12 08:51:03;;;;;;;2.90;2.70;;;26.00;99.90;;;;;;5045331;28;20206;-65
2022/06/12 08:53:34;;;;;;;3.58;3.28;;;26.30;99.90;;;;;;5051122;28;20167;-64
2022/06/12 08:56:08;;;;;;;2.97;2.78;;;26.40;99.90;;;;;;5051515;28;20166;-65
2022/06/12 08:58:46;;;;;;;2.90;2.70;;;26.30;99.90;;;;;;5051468;28;20194;-65
2022/06/12 09:01:13;;;;;;;3.30;3.00;;;26.10;99.90;;;;;;5049144;28;20266;-63
2022/06/12 09:03:44;;;;;;;3.25;2.92;;;26.40;99.90;;;;;;5050511;28;20261;-65
2022/06/12 09:06:34;;;;;;;3.20;2.90;;;25.90;99.90;;;;;;5051174;28;20178;-65
2022/06/12 09:09:20;;;;;;;3.85;2.78;;;25.80;99.90;;;;;;5051503;28;20225;-65
2022/06/12 09:12:01;;;;;;;2.92;2.72;;;26.00;99.90;;;;;;5051253;28;20217;-65
2022/06/12 09:14:50;;;;;;;6.40;3.60;;;26.10;99.90;;;;;;5050910;28;20854;-65
2022/06/12 09:17:23;;;;;;;3.50;3.17;;;26.30;99.90;;;;;;5065193;28;20198;-65
2022/06/12 09:20:03;;;;;;;3.10;2.80;;;26.70;99.90;;;;;;5055459;28;20799;-65
2022/06/12 09:22:55;;;;;;;4.07;2.90;;;27.00;99.90;;;;;;5059600;28;20181;-65
2022/06/12 09:25:39;;;;;;;3.33;3.03;;;27.30;99.90;;;;;;5070953;28;20198;-65
2022/06/12 09:28:19;;;;;;;3.00;2.80;;;27.20;99.90;;;;;;5062140;28;20271;-65
2022/06/12 09:30:55;;;;;;;3.17;2.95;;;27.00;99.90;;;;;;5058763;28;20198;-65
2022/06/12 09:33:47;;;;;;;4.82;3.30;;;26.20;99.90;;;;;;5048303;28;20257;-65
2022/06/12 09:36:36;;;;;;;5.93;3.60;;;26.30;99.90;;;;;;5050682;28;20206;-65
2022/06/12 09:39:19;;;;;;;5.45;3.33;;;26.90;99.90;;;;;;5057668;28;20186;-65
2022/06/12 09:41:56;;;;;;;4.05;2.83;;;27.20;99.90;;;;;;5070839;28;20269;-65
2022/06/12 09:44:29;;;;;;;3.58;3.28;;;27.70;99.90;;;;;;5055866;28;20208;-65
2022/06/12 09:47:14;;;;;;;3.55;3.22;;;27.60;99.90;;;;;;5069263;28;20174;-65
2022/06/12 09:49:51;;;;;;;3.90;2.75;;;28.10;99.90;;;;;;5055122;28;20222;-65
2022/06/12 09:52:34;;;;;;;5.78;2.95;;;27.80;99.90;;;;;;5069246;28;20292;-65
2022/06/12 09:55:27;;;;;;;5.85;3.10;;;27.70;99.90;;;;;;5061421;28;20545;-64
2022/06/12 09:58:11;;;;;;;5.82;3.40;;;27.70;99.90;;;;;;5069645;28;20307;-64
2022/06/12 10:00:45;;;;;;;5.82;3.53;;;28.00;99.90;;;;;;5047395;28;20273;-65
2022/06/12 10:03:31;;;;;;;3.42;3.00;;;28.30;99.90;;;;;;5068809;28;20181;-64
2022/06/12 10:06:02;;;;;;;5.22;3.28;;;28.40;99.90;;;;;;5048885;28;20193;-64
2022/06/12 10:08:39;;;;;;;5.22;3.80;;;27.90;99.90;;;;;;5053768;28;21040;-64
2022/06/12 10:11:18;;;;;;;4.00;3.60;;;28.00;99.90;;;;;;5070295;28;20228;-65
2022/06/12 10:13:52;;;;;;;3.70;3.28;;;27.50;99.90;;;;;;5064777;28;20201;-65
2022/06/12 10:17:16;;;;;;;5.40;4.07;;;27.60;99.90;;;;;;5050477;28;20551;-64
2022/06/12 10:19:46;;;;;;;5.28;3.90;;;27.30;99.90;;;;;;5047679;28;20197;-65
2022/06/12 10:22:22;;;;;;;5.57;3.28;;;27.40;99.90;;;;;;5070534;28;20178;-65
2022/06/12 10:24:49;;;;;;;7.88;3.03;;;27.60;99.90;;;;;;5057042;28;20184;-65
2022/06/12 10:27:18;;;;;;;3.97;2.92;;;27.80;99.90;;;;;;5050034;28;20700;-65
2022/06/12 10:29:43;;;;;;;4.00;3.00;;;28.20;99.90;;;;;;5062614;28;20547;-64
2022/06/12 10:32:18;;;;;;;5.53;3.67;;;28.70;99.90;;;;;;5070362;28;20209;-65
2022/06/12 10:34:44;;;;;;;3.42;2.88;;;28.90;99.90;;;;;;5058638;28;20175;-64
2022/06/12 10:37:28;;;;;;;6.93;3.55;;;29.20;99.90;;;;;;5048093;28;20561;-65
2022/06/12 10:40:14;;;;;;;4.45;3.25;;;29.30;99.90;;;;;;5064132;28;20174;-65
2022/06/12 10:42:49;;;;;;;3.72;3.30;;;29.50;99.90;;;;;;5074142;28;20352;-65
2022/06/12 10:45:25;;;;;;;5.95;3.28;;;29.00;99.90;;;;;;5058754;28;20273;-65
2022/06/12 10:47:53;;;;;;;5.13;3.25;;;28.70;99.90;;;;;;5053898;28;20190;-65
2022/06/12 10:50:35;;;;;;;4.85;3.30;;;28.30;99.90;;;;;;5067660;28;20206;-64
2022/06/12 10:53:16;;;;;;;7.38;3.25;;;27.90;99.90;;;;;;5059919;28;20175;-65
2022/06/12 10:55:59;;;;;;;9.52;3.85;;;28.00;99.90;;;;;;5053575;28;20551;-65
2022/06/12 10:58:31;;;;;;;8.38;3.80;;;28.20;99.90;;;;;;5069405;28;20657;-64
2022/06/12 11:01:03;;;;;;;4.93;3.28;;;27.70;99.90;;;;;;5074857;28;20186;-64
2022/06/12 11:03:37;;;;;;;6.40;3.60;;;27.40;99.90;;;;;;5057167;28;20190;-64
2022/06/12 11:06:14;;;;;;;4.47;3.45;;;27.50;99.90;;;;;;5054461;28;20542;-65
2022/06/12 11:08:55;;;;;;;7.18;3.65;;;28.00;99.90;;;;;;5067988;28;20208;-63
2022/06/12 11:11:49;;;;;;;9.45;3.80;;;28.50;99.90;;;;;;5053286;28;20240;-65
2022/06/12 11:14:45;;;;;;;4.75;3.67;;;28.60;99.90;;;;;;5032960;28;20172;-65
2022/06/12 11:17:36;;;;;;;4.68;3.47;;;28.00;99.90;;;;;;5038626;28;20218;-64
2022/06/12 11:20:28;;;;;;;6.60;3.70;;;27.60;99.90;;;;;;5044409;28;20182;-65
2022/06/12 11:23:17;;;;;;;4.45;3.58;;;27.90;99.90;;;;;;5053251;28;20186;-65
2022/06/12 11:26:13;;;;;;;6.22;3.72;;;28.50;99.90;;;;;;5052900;28;20630;-65
2022/06/12 11:29:01;;;;;;;5.75;3.28;;;28.40;99.90;;;;;;5054046;28;20463;-66
2022/06/12 11:31:55;;;;;;;6.70;3.90;;;28.40;99.90;;;;;;5052731;28;20268;-65
2022/06/12 11:34:39;;;;;;;10.32;3.80;;;27.30;99.90;;;;;;5052712;28;20175;-64
2022/06/12 11:37:26;;;;;;;7.88;3.38;;;27.20;99.90;;;;;;5054759;28;20190;-65
2022/06/12 11:39:58;;;;;;;7.55;3.70;;;27.30;99.90;;;;;;5072759;28;20163;-65
2022/06/12 11:42:32;;;;;;;4.72;3.38;;;27.80;99.90;;;;;;5060959;28;20186;-65
2022/06/12 11:45:18;;;;;;;4.47;3.30;;;28.60;99.90;;;;;;5072776;28;20550;-65
2022/06/12 11:48:02;;;;;;;5.28;3.47;;;28.90;99.90;;;;;;5065890;28;20217;-65
2022/06/12 11:50:43;;;;;;;5.70;3.53;;;28.90;99.90;;;;;;5052255;28;20285;-64
2022/06/12 11:53:22;;;;;;;6.05;3.22;;;29.30;99.90;;;;;;5061356;28;20579;-66
2022/06/12 11:55:59;;;;;;;5.65;3.60;;;29.80;99.90;;;;;;5070776;28;20182;-65
2022/06/12 11:58:50;;;;;;;7.03;3.55;;;29.70;99.90;;;;;;5072188;28;20193;-65
2022/06/12 12:01:35;;;;;;;5.78;3.20;;;29.10;99.90;;;;;;5064506;28;20217;-65
2022/06/12 12:04:38;;;;;;;9.27;3.78;;;28.30;99.90;;;;;;5051278;28;20174;-65
2022/06/12 12:07:52;;;;;;;5.10;3.85;;;27.60;99.90;;;;;;5065475;28;20178;-65
2022/06/12 12:10:26;;;;;;;6.68;3.50;;;27.90;99.90;;;;;;5068693;28;20186;-65
2022/06/12 12:13:00;;;;;;;6.85;3.65;;;28.30;99.90;;;;;;5052240;28;20206;-65
2022/06/12 12:15:33;;;;;;;5.63;3.92;;;28.70;99.90;;;;;;5058448;28;20858;-65
2022/06/12 12:18:01;;;;;;;6.38;3.63;;;28.70;99.90;;;;;;5072293;28;20614;-65
2022/06/12 12:20:33;;;;;;;7.50;3.50;;;28.50;99.90;;;;;;5071183;28;20545;-65
2022/06/12 12:23:19;;;;;;;4.90;3.30;;;28.40;99.90;;;;;;5070723;28;20185;-65
2022/06/12 12:26:16;;;;;;;5.22;3.63;;;28.70;99.90;;;;;;5051576;28;20592;-65
2022/06/12 12:28:50;;;;;;;4.03;3.60;;;28.00;99.90;;;;;;5045870;28;20222;-65
2022/06/12 12:31:17;;;;;;;3.47;3.17;;;27.80;99.90;;;;;;5060037;28;20559;-66
2022/06/12 12:33:46;;;;;;;7.32;3.65;;;27.90;99.90;;;;;;5050643;28;20571;-65
2022/06/12 12:41:50;;;;;;;9.10;4.00;;;28.70;99.90;;;;;;5051156;28;20169;-65
2022/06/12 12:44:35;;;;;;;6.85;3.85;;;29.10;99.90;;;;;;5050493;28;20233;-65
2022/06/12 12:47:02;;;;;;;4.57;3.72;;;29.50;99.90;;;;;;5048875;28;20565;-65
2022/06/12 12:49:30;;;;;;;6.55;4.60;;;29.80;99.90;;;;;;5050503;28;20205;-65
2022/06/12 12:52:41;;;;;;;6.22;3.60;;;29.80;99.90;;;;;;5050675;28;20218;-65
2022/06/12 12:55:33;;;;;;;6.07;3.25;;;29.80;99.90;;;;;;4988801;28;20207;-65
2022/06/12 12:58:24;;;;;;;4.20;3.33;;;29.70;99.90;;;;;;4989254;28;20208;-65
2022/06/12 13:01:16;;;;;;;5.10;3.25;;;29.30;99.90;;;;;;5042280;28;20191;-65
2022/06/12 13:03:47;;;;;;;5.50;3.60;;;29.10;99.90;;;;;;5049147;28;20187;-65
2022/06/12 13:06:34;;;;;;;6.75;3.97;;;29.10;99.90;;;;;;5050788;28;20584;-64
2022/06/12 13:09:08;;;;;;;7.93;4.32;;;28.30;99.90;;;;;;5050563;28;20195;-64
2022/06/12 13:11:58;;;;;;;5.53;4.60;;;27.40;99.90;;;;;;5050241;28;20197;-65
2022/06/12 13:14:33;;;;;;;7.65;3.60;;;27.00;99.90;;;;;;5050079;28;20434;-65
2022/06/12 13:17:26;;;;;;;6.47;3.72;;;27.10;99.90;;;;;;5048604;28;20225;-65
2022/06/12 13:20:05;;;;;;;4.13;3.50;;;27.10;99.90;;;;;;5050473;28;20177;-65
2022/06/12 13:22:40;;;;;;;5.32;3.58;;;26.70;99.90;;;;;;5050250;28;20178;-65
2022/06/12 13:25:10;;;;;;;6.97;4.05;;;26.70;99.90;;;;;;5049933;28;20206;-65
2022/06/12 13:27:57;;;;;;;5.85;3.78;;;27.40;99.90;;;;;;5011207;28;1086693;-65
2022/06/12 13:30:31;;;;;;;4.18;3.40;;;28.30;99.90;;;;;;5050987;28;20210;-65
2022/06/12 13:33:08;;;;;;;4.40;3.72;;;28.90;99.90;;;;;;5051133;28;20182;-66